Friday, November 16, 2018, 1:30 AM GMT
Back to Local

CYBN, Borden, Ont.

Location: , , Canada Lat: 44.25
Local Time: 1:30 AM GMT ( 1:30 GMT) Lon: -79.917
Time Zone: GMT Elev: 731 ft

Show me the last for .
Show Coded

Time T Td Feel RH Dir Speed Gust Alt SLP Vis Weather Sky Remarks
2018-11-16 01:24 28 28 - 100 100° 2 - 29.97 - 0 -SN VV007 None
2018-11-16 01:19 28 28 25 100 100° 3 - 29.97 - 1 -SN VV007 None
2018-11-16 01:00 28 28 25 100 100° 3 - 29.98 30.02 0 -SN VV006 None
2018-11-16 00:38 28 28 25 100 110° 3 - 30.00 - 0 -SN VV005 None
2018-11-16 00:08 28 27 23 92 120° 5 - 30.02 - 0 -SN VV006 None
2018-11-16 00:00 28 27 22 92 120° 6 - 30.02 30.06 0 -SN VV006 None
2018-11-15 23:29 28 27 22 92 130° 6 - 30.04 - 0 -SN VV007 None
2018-11-15 23:00 28 27 21 92 120° 7 - 30.04 30.08 1 -SN VV006 None
2018-11-15 22:17 28 27 20 92 130° 8 - 30.06 - 1 -SN VV007 None
2018-11-15 22:00 28 27 20 92 110° 9 - 30.07 30.11 0 -SN VV007 None
2018-11-15 21:22 28 25 20 86 120° 8 - 30.10 - 0 -SN VV007 None
2018-11-15 21:06 28 25 21 86 130° 7 - 30.10 - 1 -SN VV008 None
2018-11-15 21:01 28 25 21 86 130° 7 - 30.11 - 1 -SN VV008 None
2018-11-15 20:53 28 25 16 86 140° 9 17 30.11 - 1 -SN VV008 None
2018-11-15 20:00 30 23 21 74 150° 10 - 30.14 30.18 9 FEW043 FEW052 FEW071 SCT080 None
2018-11-15 19:00 28 23 21 79 100° 7 - 30.15 30.19 9 SCT085 None
2018-11-15 18:00 27 23 19 86 110° 7 - 30.19 30.23 9 CLR None
2018-11-15 17:37 27 23 20 86 100° 6 - 30.20 - 9 FEW021 FEW077 None
2018-11-15 17:00 25 21 17 85 110° 7 - 30.24 30.28 9 OVC017 OVC077 None
2018-11-15 16:00 25 21 15 85 100° 10 - 30.28 30.33 9 BKN015 None
2018-11-15 15:48 23 19 12 85 100° 10 - 30.30 - 9 BKN015 None
2018-11-15 15:00 23 19 12 85 100° 12 - 30.33 30.38 9 OVC011 OVC024 OVC077 None
2018-11-15 14:00 23 19 15 85 90° 7 - 30.35 30.40 9 BKN024 None
2018-11-15 13:28 21 18 14 85 110° 6 - 30.38 - 9 BKN024 None
2018-11-15 13:23 21 18 15 85 110° 5 - 30.38 - 9 BKN026 None
2018-11-15 13:00 21 18 14 85 110° 6 - 30.39 30.43 9 OVC024 None
2018-11-15 12:00 21 16 16 79 120° 3 - 30.40 30.45 9 OVC024 OVC034 None
2018-11-15 11:00 19 16 11 85 140° 6 - 30.42 30.46 9 OVC020 None
2018-11-15 10:00 18 14 - 85 - Calm - 30.44 30.48 9 OVC022 None
2018-11-15 09:00 16 14 - 92 - Calm - 30.48 30.52 9 OVC026 None
2018-11-15 08:00 16 14 10 92 150° 3 - 30.50 30.54 9 OVC028 OVC077 None
2018-11-15 07:00 14 14 - 100 160° 2 - 30.49 30.53 9 SCT030 None
2018-11-15 06:00 14 12 8 92 160° 3 - 30.49 30.54 9 CLR None
2018-11-15 05:00 16 14 - 92 170° 2 - 30.51 30.55 9 FEW030 FEW065 None
2018-11-15 04:00 19 18 11 92 170° 6 - 30.53 30.57 9 OVC030 None
2018-11-15 03:00 16 16 - 100 - Calm - 30.52 30.57 9 OVC032 None
2018-11-15 02:00 16 14 - 92 160° 2 - 30.53 30.58 9 OVC032 None

Support USWX by starting your Amazon purchase here.